Time;durP1;ratioP1;P1;durP2;ratioP2;P2;SDS_P1;SDS_P2;PMS_P1;PMS_P2;Temp;Humidity;BMP_temperature;BMP_pressure;BME280_temperature;BME280_humidity;BME280_pressure;Samples;Min_cycle;Max_cycle;Signal;HPM_P1;HPM_P2
2021/04/08 00:02:09;;;;;;;37.92;18.35;;;;;;;;;;4997403;28;20026;-50
2021/04/08 00:04:35;;;;;;;17.92;10.15;;;;;;;;;;4997222;28;20030;-50
2021/04/08 00:07:01;;;;;;;29.70;15.65;;;;;;;;;;4995610;28;20030;-48
2021/04/08 00:09:27;;;;;;;35.20;16.80;;;;;;;;;;4996974;28;20478;-50
2021/04/08 00:11:56;;;;;;;30.70;16.10;;;;;;;;;;4997010;28;20028;-50
2021/04/08 00:14:22;;;;;;;26.52;13.80;;;;;;;;;;4996957;28;20056;-47
2021/04/08 00:16:48;;;;;;;28.67;13.57;;;;;;;;;;4996956;28;20022;-48
2021/04/08 00:19:14;;;;;;;21.77;11.43;;;;;;;;;;4997027;28;20034;-51
2021/04/08 00:21:40;;;;;;;21.00;10.75;;;;;;;;;;4997061;28;20022;-51
2021/04/08 00:24:07;;;;;;;23.95;11.82;;;;;;;;;;4997003;28;20069;-52
2021/04/08 00:26:33;;;;;;;17.15;8.82;;;;;;;;;;4997120;28;20041;-50
2021/04/08 00:28:59;;;;;;;40.72;18.33;;;;;;;;;;4996771;28;20038;-49
2021/04/08 00:31:25;;;;;;;30.55;14.90;;;;;;;;;;4996766;28;20034;-51
2021/04/08 00:33:51;;;;;;;17.63;7.80;;;;;;;;;;4996711;28;20033;-50
2021/04/08 00:36:18;;;;;;;28.80;13.45;;;;;;;;;;4996674;28;20027;-49
2021/04/08 00:38:44;;;;;;;22.40;10.30;;;;;;;;;;4996701;28;20027;-51
2021/04/08 00:41:10;;;;;;;20.05;10.90;;;;;;;;;;4996645;28;20525;-51
2021/04/08 00:43:36;;;;;;;44.28;21.58;;;;;;;;;;4996671;28;20109;-49
2021/04/08 00:46:02;;;;;;;50.22;24.90;;;;;;;;;;4996469;28;20457;-48
2021/04/08 00:48:28;;;;;;;64.25;28.95;;;;;;;;;;4994662;28;20129;-50
2021/04/08 00:50:54;;;;;;;75.93;35.88;;;;;;;;;;4996344;28;20394;-49
2021/04/08 00:53:26;;;;;;;58.60;27.58;;;;;;;;;;4996342;28;20026;-49
2021/04/08 00:55:53;;;;;;;33.95;17.10;;;;;;;;;;4996360;28;20030;-49
2021/04/08 00:58:20;;;;;;;37.53;18.98;;;;;;;;;;4996203;28;20061;-50
2021/04/08 01:00:46;;;;;;;38.55;18.60;;;;;;;;;;4996410;28;20445;-48
2021/04/08 01:03:13;;;;;;;23.55;12.57;;;;;;;;;;4995626;28;20025;-48
2021/04/08 01:05:39;;;;;;;16.70;10.05;;;;;;;;;;4996225;28;20026;-46
2021/04/08 01:08:05;;;;;;;17.05;9.23;;;;;;;;;;4996137;28;20018;-48
2021/04/08 01:10:32;;;;;;;13.95;7.93;;;;;;;;;;4996035;28;20042;-49
2021/04/08 01:13:00;;;;;;;15.93;8.73;;;;;;;;;;4994740;28;20019;-49
2021/04/08 01:15:26;;;;;;;13.13;6.25;;;;;;;;;;4996042;28;20054;-47
2021/04/08 01:17:55;;;;;;;12.02;6.93;;;;;;;;;;4995954;28;20434;-48
2021/04/08 01:20:21;;;;;;;19.52;10.50;;;;;;;;;;4996120;28;20407;-48
2021/04/08 01:22:54;;;;;;;17.30;8.35;;;;;;;;;;4995988;28;20084;-48
2021/04/08 01:25:38;;;;;;;18.50;9.80;;;;;;;;;;4995724;28;20027;-47
2021/04/08 01:28:17;;;;;;;11.82;6.47;;;;;;;;;;4995659;28;20026;-47
2021/04/08 01:30:45;;;;;;;14.02;8.88;;;;;;;;;;4995545;28;20038;-46
2021/04/08 01:33:24;;;;;;;14.93;8.55;;;;;;;;;;4995871;28;20031;-48
2021/04/08 01:35:51;;;;;;;24.20;11.75;;;;;;;;;;4995705;28;20034;-47
2021/04/08 01:38:28;;;;;;;29.40;15.48;;;;;;;;;;4995787;28;20033;-48
2021/04/08 01:40:54;;;;;;;27.55;13.75;;;;;;;;;;4995615;28;20555;-47
2021/04/08 01:43:25;;;;;;;25.50;13.77;;;;;;;;;;4995480;28;20048;-48
2021/04/08 01:45:52;;;;;;;19.20;10.48;;;;;;;;;;4995792;28;20352;-47
2021/04/08 01:48:18;;;;;;;22.60;9.45;;;;;;;;;;4995070;28;20058;-47
2021/04/08 01:50:46;;;;;;;16.70;8.50;;;;;;;;;;4995576;28;20030;-48
2021/04/08 01:53:14;;;;;;;14.95;7.68;;;;;;;;;;4995434;28;20023;-48
2021/04/08 01:55:42;;;;;;;12.10;7.20;;;;;;;;;;4995338;28;20022;-47
2021/04/08 01:58:08;;;;;;;13.13;6.95;;;;;;;;;;4995251;28;20386;-48
2021/04/08 02:00:35;;;;;;;11.05;6.82;;;;;;;;;;4995212;28;20102;-47
2021/04/08 02:03:02;;;;;;;9.45;6.50;;;;;;;;;;4995339;28;20085;-47
2021/04/08 02:05:29;;;;;;;11.15;6.53;;;;;;;;;;4995277;28;20026;-48
2021/04/08 02:07:56;;;;;;;11.60;6.35;;;;;;;;;;4995218;28;20414;-47
2021/04/08 02:10:23;;;;;;;11.25;6.03;;;;;;;;;;4995106;28;20038;-48
2021/04/08 02:12:50;;;;;;;10.57;6.07;;;;;;;;;;4994818;28;20602;-47
2021/04/08 02:15:18;;;;;;;10.95;6.78;;;;;;;;;;4993935;28;20031;-47
2021/04/08 02:17:45;;;;;;;11.13;6.80;;;;;;;;;;4994905;28;20030;-48
2021/04/08 02:20:18;;;;;;;11.07;5.97;;;;;;;;;;4995107;28;20037;-48
2021/04/08 02:22:46;;;;;;;11.35;6.00;;;;;;;;;;4995125;28;20035;-48
2021/04/08 02:25:13;;;;;;;11.75;6.00;;;;;;;;;;4994860;28;20022;-51
2021/04/08 02:27:40;;;;;;;9.23;5.28;;;;;;;;;;4994551;28;20377;-50
2021/04/08 02:30:07;;;;;;;8.02;4.75;;;;;;;;;;4994810;28;20228;-48
2021/04/08 02:32:35;;;;;;;6.63;4.50;;;;;;;;;;4994775;28;20015;-49
2021/04/08 02:35:01;;;;;;;8.70;5.47;;;;;;;;;;4994712;28;20027;-50
2021/04/08 02:37:27;;;;;;;13.80;6.38;;;;;;;;;;4994566;28;20022;-48
2021/04/08 02:39:53;;;;;;;11.63;5.72;;;;;;;;;;4994491;28;20026;-50
2021/04/08 02:42:20;;;;;;;10.38;5.70;;;;;;;;;;4994405;28;20018;-48
2021/04/08 02:44:46;;;;;;;14.13;6.00;;;;;;;;;;4994336;28;20032;-51
2021/04/08 02:47:12;;;;;;;9.77;5.80;;;;;;;;;;4994234;28;20038;-50
2021/04/08 02:49:38;;;;;;;9.20;5.38;;;;;;;;;;4994462;28;20038;-47
2021/04/08 02:52:05;;;;;;;7.60;4.47;;;;;;;;;;4994380;28;20026;-49
2021/04/08 02:54:39;;;;;;;7.55;4.57;;;;;;;;;;4994332;28;20060;-50
2021/04/08 02:57:06;;;;;;;8.43;5.22;;;;;;;;;;4994397;28;20493;-49
2021/04/08 02:59:50;;;;;;;7.85;5.10;;;;;;;;;;4994193;28;20098;-48
2021/04/08 03:02:18;;;;;;;9.52;5.38;;;;;;;;;;4994360;28;20022;-48
2021/04/08 03:04:51;;;;;;;7.55;5.10;;;;;;;;;;4994179;28;20054;-48
2021/04/08 03:07:21;;;;;;;13.45;5.43;;;;;;;;;;4994225;28;20486;-48
2021/04/08 03:09:48;;;;;;;10.60;5.28;;;;;;;;;;4994108;28;20077;-47
2021/04/08 03:12:15;;;;;;;9.60;5.25;;;;;;;;;;4992385;28;20035;-48
2021/04/08 03:14:47;;;;;;;9.77;5.70;;;;;;;;;;4992865;28;20079;-48
2021/04/08 03:17:14;;;;;;;10.23;5.35;;;;;;;;;;4994012;28;20169;-49
2021/04/08 03:19:42;;;;;;;9.38;5.82;;;;;;;;;;4993918;28;20156;-49
2021/04/08 03:22:09;;;;;;;7.78;4.85;;;;;;;;;;4993898;28;20505;-49
2021/04/08 03:24:36;;;;;;;10.73;5.80;;;;;;;;;;4993873;28;20029;-50
2021/04/08 03:27:02;;;;;;;11.52;6.88;;;;;;;;;;4996292;28;20030;-47
2021/04/08 03:29:29;;;;;;;17.15;7.97;;;;;;;;;;4997781;28;20070;-46
2021/04/08 03:31:55;;;;;;;15.25;7.95;;;;;;;;;;4998250;28;20050;-47
2021/04/08 03:34:23;;;;;;;16.08;8.25;;;;;;;;;;4998140;28;20066;-47
2021/04/08 03:36:49;;;;;;;17.40;8.45;;;;;;;;;;4997900;28;20054;-47
2021/04/08 03:39:16;;;;;;;15.25;7.60;;;;;;;;;;4997996;28;20032;-47
2021/04/08 03:41:43;;;;;;;13.55;7.40;;;;;;;;;;4997696;28;20026;-49
2021/04/08 03:44:10;;;;;;;18.35;8.18;;;;;;;;;;4997610;28;20031;-49
2021/04/08 03:46:37;;;;;;;15.95;7.70;;;;;;;;;;4997621;28;20073;-48
2021/04/08 03:49:04;;;;;;;16.20;7.15;;;;;;;;;;4997425;28;20176;-51
2021/04/08 03:51:31;;;;;;;15.63;7.35;;;;;;;;;;4997672;28;20444;-51
2021/04/08 03:53:57;;;;;;;20.67;7.22;;;;;;;;;;4997909;28;20022;-50
2021/04/08 03:56:24;;;;;;;15.35;6.30;;;;;;;;;;4997856;28;20476;-51
2021/04/08 03:58:52;;;;;;;13.90;7.00;;;;;;;;;;4997814;28;20113;-50
2021/04/08 04:01:18;;;;;;;12.57;7.32;;;;;;;;;;4997443;28;20030;-52
2021/04/08 04:03:45;;;;;;;14.88;7.18;;;;;;;;;;4997457;28;20018;-47
2021/04/08 04:06:12;;;;;;;11.73;6.90;;;;;;;;;;4997230;28;20034;-51
2021/04/08 04:08:38;;;;;;;11.02;6.30;;;;;;;;;;4997644;28;20034;-49
2021/04/08 04:11:05;;;;;;;10.95;6.50;;;;;;;;;;4997345;28;20032;-51
2021/04/08 04:13:31;;;;;;;17.15;5.85;;;;;;;;;;4997306;28;20069;-50
2021/04/08 04:15:58;;;;;;;14.70;7.25;;;;;;;;;;4996977;28;20536;-51
2021/04/08 04:18:24;;;;;;;17.45;9.35;;;;;;;;;;4997208;28;20027;-50
2021/04/08 04:20:50;;;;;;;20.27;9.75;;;;;;;;;;4996845;28;20023;-48
2021/04/08 04:23:16;;;;;;;18.25;9.45;;;;;;;;;;4997316;28;20426;-51
2021/04/08 04:25:43;;;;;;;39.05;19.33;;;;;;;;;;4996972;28;20128;-51
2021/04/08 04:28:09;;;;;;;18.13;10.57;;;;;;;;;;4996899;28;20015;-47
2021/04/08 04:30:35;;;;;;;21.10;9.30;;;;;;;;;;4996936;28;20041;-47
2021/04/08 04:33:01;;;;;;;20.10;11.15;;;;;;;;;;4996937;28;20485;-46
2021/04/08 04:35:27;;;;;;;16.95;9.75;;;;;;;;;;4996889;28;20034;-47
2021/04/08 04:37:53;;;;;;;19.20;9.95;;;;;;;;;;4995698;28;20030;-46
2021/04/08 04:40:20;;;;;;;31.40;16.90;;;;;;;;;;4996788;28;20493;-47
2021/04/08 04:42:48;;;;;;;23.35;12.27;;;;;;;;;;4996726;28;20391;-47
2021/04/08 04:45:15;;;;;;;32.40;16.23;;;;;;;;;;4996838;28;20022;-47
2021/04/08 04:47:42;;;;;;;26.02;11.48;;;;;;;;;;4996258;28;20112;-47
2021/04/08 04:50:09;;;;;;;26.73;11.25;;;;;;;;;;4996467;28;20038;-46
2021/04/08 04:52:36;;;;;;;19.38;10.85;;;;;;;;;;4996596;28;20024;-47
2021/04/08 04:55:02;;;;;;;14.85;9.70;;;;;;;;;;4996455;28;20026;-47
2021/04/08 04:57:28;;;;;;;16.33;10.32;;;;;;;;;;4996518;28;20022;-46
2021/04/08 04:59:54;;;;;;;14.27;7.47;;;;;;;;;;4996454;28;20030;-46
2021/04/08 05:02:20;;;;;;;17.33;8.93;;;;;;;;;;4996333;28;20374;-46
2021/04/08 05:04:46;;;;;;;13.50;7.03;;;;;;;;;;4996491;28;20041;-46
2021/04/08 05:07:12;;;;;;;12.10;7.80;;;;;;;;;;4996357;28;20025;-46
2021/04/08 05:09:38;;;;;;;21.38;10.88;;;;;;;;;;4996090;28;20517;-49
2021/04/08 05:12:04;;;;;;;25.75;14.18;;;;;;;;;;4996282;28;20132;-49
2021/04/08 05:14:31;;;;;;;19.52;10.60;;;;;;;;;;4995938;28;20033;-46
2021/04/08 05:16:57;;;;;;;15.00;9.23;;;;;;;;;;4995604;28;20041;-49
2021/04/08 05:19:23;;;;;;;16.60;9.25;;;;;;;;;;4996025;28;20022;-48
2021/04/08 05:21:50;;;;;;;19.25;11.60;;;;;;;;;;4995993;28;20106;-48
2021/04/08 05:24:16;;;;;;;18.27;10.60;;;;;;;;;;4996175;28;20023;-48
2021/04/08 05:26:42;;;;;;;13.15;9.00;;;;;;;;;;4995961;28;20036;-49
2021/04/08 05:29:08;;;;;;;23.75;8.80;;;;;;;;;;4995802;28;20041;-48
2021/04/08 05:31:35;;;;;;;16.60;9.38;;;;;;;;;;4995831;28;20102;-48
2021/04/08 05:34:01;;;;;;;15.50;8.65;;;;;;;;;;4995677;28;20084;-48
2021/04/08 05:36:27;;;;;;;16.27;9.40;;;;;;;;;;4995654;28;20371;-47
2021/04/08 05:38:53;;;;;;;14.52;10.27;;;;;;;;;;4995769;28;20451;-49
2021/04/08 05:41:19;;;;;;;15.10;10.32;;;;;;;;;;4995862;28;20061;-48
2021/04/08 05:43:46;;;;;;;14.85;10.93;;;;;;;;;;4995723;28;20076;-50
2021/04/08 05:46:12;;;;;;;22.80;13.63;;;;;;;;;;4995403;28;20030;-47
2021/04/08 05:48:39;;;;;;;23.13;13.52;;;;;;;;;;4995299;28;20065;-49
2021/04/08 05:51:05;;;;;;;22.55;14.63;;;;;;;;;;4995123;28;20022;-49
2021/04/08 05:53:31;;;;;;;21.50;14.80;;;;;;;;;;4995631;28;20034;-48
2021/04/08 05:55:57;;;;;;;22.45;14.35;;;;;;;;;;4995243;28;20022;-48
2021/04/08 05:58:24;;;;;;;20.25;13.38;;;;;;;;;;4995512;28;20049;-48
2021/04/08 06:00:50;;;;;;;17.52;12.52;;;;;;;;;;4995407;28;20042;-48
2021/04/08 06:03:18;;;;;;;19.25;12.75;;;;;;;;;;4995382;28;20069;-49
2021/04/08 06:05:45;;;;;;;19.58;13.13;;;;;;;;;;4995231;28;20027;-48
2021/04/08 06:08:11;;;;;;;23.60;13.57;;;;;;;;;;4995074;28;20031;-50
2021/04/08 06:10:37;;;;;;;19.00;12.93;;;;;;;;;;4995261;28;20073;-48
2021/04/08 06:13:03;;;;;;;20.13;12.27;;;;;;;;;;4995275;28;20030;-48
2021/04/08 06:15:29;;;;;;;20.38;13.70;;;;;;;;;;4994941;28;20359;-48
2021/04/08 06:17:58;;;;;;;16.80;11.73;;;;;;;;;;4994935;28;20034;-49
2021/04/08 06:20:24;;;;;;;20.85;11.45;;;;;;;;;;4994827;28;20404;-49
2021/04/08 06:22:51;;;;;;;18.92;13.25;;;;;;;;;;4994848;28;20033;-49
2021/04/08 06:25:17;;;;;;;16.83;12.63;;;;;;;;;;4994685;28;20022;-48
2021/04/08 06:27:43;;;;;;;16.60;11.30;;;;;;;;;;4994967;28;20379;-49
2021/04/08 06:30:10;;;;;;;18.65;12.98;;;;;;;;;;4994577;28;20041;-48
2021/04/08 06:32:38;;;;;;;21.40;12.77;;;;;;;;;;4994604;28;20022;-48
2021/04/08 06:35:05;;;;;;;21.55;12.50;;;;;;;;;;4994645;28;20030;-49
2021/04/08 06:37:31;;;;;;;18.55;11.68;;;;;;;;;;4994468;28;20101;-49
2021/04/08 06:39:57;;;;;;;20.63;12.50;;;;;;;;;;4994593;28;20038;-48
2021/04/08 06:42:24;;;;;;;23.00;11.93;;;;;;;;;;4994576;28;20157;-48
2021/04/08 06:44:51;;;;;;;22.60;14.02;;;;;;;;;;4994357;28;20018;-49
2021/04/08 06:47:33;;;;;;;24.48;13.38;;;;;;;;;;4994104;28;20105;-50
2021/04/08 06:50:03;;;;;;;23.15;13.00;;;;;;;;;;4994077;28;20030;-48
2021/04/08 06:52:29;;;;;;;21.10;12.65;;;;;;;;;;4994398;28;20022;-47
2021/04/08 06:54:56;;;;;;;19.70;12.65;;;;;;;;;;4994280;28;20031;-48
2021/04/08 06:57:22;;;;;;;24.08;12.75;;;;;;;;;;4994346;28;20033;-49
2021/04/08 06:59:48;;;;;;;21.77;12.98;;;;;;;;;;4994148;28;20395;-48
2021/04/08 07:02:15;;;;;;;26.58;13.75;;;;;;;;;;4993704;28;20113;-48
2021/04/08 07:04:41;;;;;;;30.45;16.15;;;;;;;;;;4994177;28;20029;-49
2021/04/08 07:07:08;;;;;;;43.67;19.75;;;;;;;;;;4994205;28;20022;-49
2021/04/08 07:09:34;;;;;;;24.48;14.95;;;;;;;;;;4993735;28;20177;-49
2021/04/08 07:12:00;;;;;;;35.80;20.83;;;;;;;;;;4993882;28;20029;-47
2021/04/08 07:14:27;;;;;;;31.02;19.05;;;;;;;;;;4993916;28;20381;-49
2021/04/08 07:16:53;;;;;;;44.03;23.75;;;;;;;;;;4993851;28;20031;-49
2021/04/08 07:19:19;;;;;;;29.95;16.77;;;;;;;;;;4993776;28;20030;-49
2021/04/08 07:21:48;;;;;;;29.42;17.30;;;;;;;;;;4994029;28;20121;-47
2021/04/08 07:24:18;;;;;;;29.30;17.63;;;;;;;;;;4993962;28;20029;-49
2021/04/08 07:26:51;;;;;;;24.38;15.55;;;;;;;;;;4993875;28;20475;-50
2021/04/08 07:29:18;;;;;;;32.85;17.05;;;;;;;;;;4993677;28;20081;-49
2021/04/08 07:31:44;;;;;;;45.78;25.17;;;;;;;;;;4993878;28;20046;-49
2021/04/08 07:34:10;;;;;;;38.25;19.25;;;;;;;;;;4994037;28;20065;-48
2021/04/08 07:36:38;;;;;;;81.72;41.17;;;;;;;;;;4993656;28;20023;-47
2021/04/08 07:39:07;;;;;;;52.05;27.48;;;;;;;;;;4993768;28;20081;-48
2021/04/08 07:41:35;;;;;;;48.75;22.98;;;;;;;;;;4993830;28;20050;-47
2021/04/08 07:44:06;;;;;;;49.65;27.30;;;;;;;;;;4993579;28;20019;-49
2021/04/08 07:46:40;;;;;;;37.45;19.35;;;;;;;;;;4993475;28;20050;-54
2021/04/08 07:49:24;;;;;;;96.40;23.00;;;;;;;;;;4993497;28;20104;-54
2021/04/08 07:51:55;;;;;;;49.35;17.13;;;;;;;;;;4993842;28;20019;-55
2021/04/08 07:54:22;;;;;;;33.45;13.18;;;;;;;;;;4993704;28;20030;-53
2021/04/08 07:56:48;;;;;;;36.72;12.95;;;;;;;;;;4993773;28;20027;-53
2021/04/08 07:59:15;;;;;;;26.13;9.57;;;;;;;;;;4993707;28;20030;-52
2021/04/08 08:01:41;;;;;;;30.15;12.85;;;;;;;;;;4993915;28;20045;-53
2021/04/08 08:04:18;;;;;;;34.72;13.25;;;;;;;;;;4993408;28;20109;-53
2021/04/08 08:06:45;;;;;;;23.20;9.93;;;;;;;;;;4993470;28;20109;-53
2021/04/08 08:09:11;;;;;;;16.38;8.45;;;;;;;;;;4993668;28;20069;-53
2021/04/08 08:11:41;;;;;;;17.90;6.80;;;;;;;;;;4993651;28;20475;-53
2021/04/08 08:14:09;;;;;;;15.57;7.03;;;;;;;;;;4996991;28;20162;-52
2021/04/08 08:16:35;;;;;;;16.83;7.75;;;;;;;;;;4997376;28;20057;-49
2021/04/08 08:19:02;;;;;;;15.63;6.85;;;;;;;;;;4997112;28;20022;-53
2021/04/08 08:21:28;;;;;;;16.48;8.00;;;;;;;;;;4996860;28;20470;-52
2021/04/08 08:23:56;;;;;;;10.75;5.93;;;;;;;;;;4996992;28;20023;-52
2021/04/08 08:26:33;;;;;;;13.88;6.50;;;;;;;;;;4996959;28;20034;-52
2021/04/08 08:29:01;;;;;;;17.73;5.60;;;;;;;;;;4996624;28;20077;-53
2021/04/08 08:31:33;;;;;;;28.25;17.27;;;;;;;;;;4996971;28;20041;-48
2021/04/08 08:34:02;;;;;;;21.08;13.23;;;;;;;;;;4996769;28;20023;-48
2021/04/08 08:36:28;;;;;;;39.85;17.63;;;;;;;;;;4996739;28;20037;-50
2021/04/08 08:38:55;;;;;;;89.55;46.53;;;;;;;;;;4996920;28;20077;-50
2021/04/08 08:41:21;;;;;;;39.50;23.15;;;;;;;;;;4996660;28;20057;-49
2021/04/08 08:43:48;;;;;;;66.75;32.67;;;;;;;;;;4996775;28;20065;-51
2021/04/08 08:46:15;;;;;;;61.22;31.95;;;;;;;;;;4996522;28;20027;-52
2021/04/08 08:48:41;;;;;;;59.10;27.65;;;;;;;;;;4991794;28;20046;-53
2021/04/08 08:51:07;;;;;;;151.55;73.90;;;;;;;;;;4977107;28;20045;-53
2021/04/08 08:53:33;;;;;;;58.80;33.30;;;;;;;;;;4977087;28;20030;-53
2021/04/08 08:55:59;;;;;;;33.45;17.92;;;;;;;;;;4977176;28;20545;-47
2021/04/08 08:58:25;;;;;;;21.00;11.20;;;;;;;;;;4976971;28;20046;-57
2021/04/08 09:00:51;;;;;;;79.47;35.95;;;;;;;;;;4977106;28;20418;-52
2021/04/08 09:03:20;;;;;;;47.78;22.75;;;;;;;;;;4977104;28;20394;-50
2021/04/08 09:05:46;;;;;;;55.17;23.35;;;;;;;;;;4977019;28;20027;-52
2021/04/08 09:08:16;;;;;;;33.65;17.42;;;;;;;;;;4976838;28;20394;-52
2021/04/08 09:10:43;;;;;;;42.83;20.48;;;;;;;;;;4976625;28;20035;-48
2021/04/08 09:13:09;;;;;;;25.25;13.60;;;;;;;;;;4976930;28;20031;-50
2021/04/08 09:15:36;;;;;;;83.60;48.53;;;;;;;;;;4976576;28;20415;-51
2021/04/08 09:18:06;;;;;;;60.30;30.65;;;;;;;;;;4976795;28;20023;-48
2021/04/08 09:20:32;;;;;;;38.78;19.98;;;;;;;;;;4976637;28;20101;-50
2021/04/08 09:23:02;;;;;;;56.72;29.88;;;;;;;;;;4976747;28;20050;-52
2021/04/08 09:25:32;;;;;;;60.67;30.73;;;;;;;;;;4975780;28;20066;-53
2021/04/08 09:28:01;;;;;;;46.20;26.75;;;;;;;;;;4976486;28;20035;-51
2021/04/08 09:30:41;;;;;;;15.48;8.43;;;;;;;;;;4976441;28;20175;-52
2021/04/08 09:33:08;;;;;;;36.58;19.58;;;;;;;;;;4976438;28;20050;-52
2021/04/08 09:35:35;;;;;;;50.95;25.70;;;;;;;;;;4976240;28;20059;-53
2021/04/08 09:38:03;;;;;;;43.08;22.45;;;;;;;;;;4976154;28;20102;-51
2021/04/08 09:40:45;;;;;;;61.83;29.15;;;;;;;;;;4976302;28;20059;-53
2021/04/08 09:43:12;;;;;;;55.45;28.60;;;;;;;;;;4976376;28;20105;-48
2021/04/08 09:45:50;;;;;;;43.97;22.42;;;;;;;;;;4976210;28;20026;-47
2021/04/08 09:48:23;;;;;;;31.77;15.07;;;;;;;;;;4987909;28;20042;-52
2021/04/08 09:50:54;;;;;;;21.60;11.45;;;;;;;;;;4995283;28;20434;-50
2021/04/08 09:53:21;;;;;;;55.83;30.52;;;;;;;;;;4995635;28;20026;-49
2021/04/08 09:55:53;;;;;;;33.65;18.13;;;;;;;;;;4995335;28;20030;-52
2021/04/08 09:58:21;;;;;;;28.17;16.60;;;;;;;;;;4995248;28;20077;-54
2021/04/08 10:00:47;;;;;;;30.10;16.30;;;;;;;;;;4995308;28;20030;-49
2021/04/08 10:03:13;;;;;;;40.83;17.73;;;;;;;;;;4995235;28;20037;-50
2021/04/08 10:05:43;;;;;;;50.67;17.30;;;;;;;;;;4995442;28;20455;-52
2021/04/08 10:08:09;;;;;;;35.72;14.82;;;;;;;;;;4995046;28;20026;-52
2021/04/08 10:10:38;;;;;;;28.83;8.93;;;;;;;;;;5016498;23;20395;-54
2021/04/08 10:13:21;;;;;;;22.83;6.82;;;;;;;;;;4995073;28;20057;-53
2021/04/08 10:15:48;;;;;;;49.88;29.98;;;;;;;;;;4994793;28;20033;-54
2021/04/08 10:18:21;;;;;;;83.05;48.65;;;;;;;;;;4994963;28;20485;-52
2021/04/08 10:20:49;;;;;;;37.97;15.48;;;;;;;;;;4995011;28;20034;-57
2021/04/08 10:23:29;;;;;;;77.80;46.83;;;;;;;;;;4994937;28;20049;-56
2021/04/08 10:25:58;;;;;;;18.83;5.35;;;;;;;;;;4994967;28;20037;-55
2021/04/08 10:28:25;;;;;;;11.95;4.80;;;;;;;;;;4994714;28;20401;-55
2021/04/08 10:30:51;;;;;;;23.65;5.93;;;;;;;;;;4994506;28;20065;-53
2021/04/08 10:33:18;;;;;;;7.22;3.97;;;;;;;;;;4994326;28;20176;-55
2021/04/08 10:35:44;;;;;;;11.93;6.35;;;;;;;;;;4983726;28;20100;-57
2021/04/08 10:38:11;;;;;;;7.80;5.43;;;;;;;;;;4979406;28;20053;-57
2021/04/08 10:40:38;;;;;;;14.77;7.95;;;;;;;;;;4983113;28;20394;-54
2021/04/08 10:43:22;;;;;;;50.92;21.67;;;;;;;;;;4982259;28;20027;-52
2021/04/08 10:45:58;;;;;;;55.28;33.00;;;;;;;;;;4974761;28;20031;-53
2021/04/08 10:48:25;;;;;;;56.53;29.33;;;;;;;;;;4974901;28;20434;-53
2021/04/08 10:50:52;;;;;;;67.30;42.58;;;;;;;;;;4974746;28;20398;-53
2021/04/08 10:53:19;;;;;;;77.90;43.33;;;;;;;;;;4957482;28;20147;-54
2021/04/08 10:55:45;;;;;;;52.35;32.65;;;;;;;;;;4974591;28;20165;-54
2021/04/08 10:58:28;;;;;;;39.42;22.30;;;;;;;;;;4974765;28;20023;-54
2021/04/08 11:00:59;;;;;;;51.45;31.48;;;;;;;;;;4974757;28;20038;-56
2021/04/08 11:03:26;;;;;;;63.47;39.55;;;;;;;;;;4974840;28;20054;-55
2021/04/08 11:05:54;;;;;;;134.45;85.63;;;;;;;;;;4989184;28;20030;-55
2021/04/08 11:08:20;;;;;;;73.88;40.88;;;;;;;;;;4989033;28;20033;-54
2021/04/08 11:10:47;;;;;;;29.30;13.65;;;;;;;;;;4981944;28;20537;-53
2021/04/08 11:13:13;;;;;;;64.80;39.00;;;;;;;;;;4984688;28;20382;-53
2021/04/08 11:15:42;;;;;;;75.30;42.13;;;;;;;;;;4973190;28;20026;-54
2021/04/08 11:18:16;;;;;;;95.47;56.75;;;;;;;;;;4983798;28;20030;-54
2021/04/08 11:20:44;;;;;;;78.05;48.35;;;;;;;;;;4983364;28;20050;-54
2021/04/08 11:23:10;;;;;;;99.63;58.85;;;;;;;;;;4981806;28;20420;-53
2021/04/08 11:25:37;;;;;;;93.10;55.53;;;;;;;;;;4983444;28;20374;-54
2021/04/08 11:28:06;;;;;;;63.67;37.25;;;;;;;;;;4983304;28;20565;-54
2021/04/08 11:30:40;;;;;;;81.22;48.28;;;;;;;;;;4984217;28;20039;-53
2021/04/08 11:33:14;;;;;;;28.70;17.23;;;;;;;;;;4983605;28;20430;-54
2021/04/08 11:35:41;;;;;;;70.97;42.58;;;;;;;;;;4984957;28;20026;-54
2021/04/08 11:38:14;;;;;;;43.75;25.42;;;;;;;;;;4984585;28;20042;-54
2021/04/08 11:40:49;;;;;;;48.58;26.65;;;;;;;;;;4984218;28;20078;-53
2021/04/08 11:43:23;;;;;;;78.65;44.75;;;;;;;;;;4984509;28;20166;-53
2021/04/08 11:45:49;;;;;;;42.60;22.38;;;;;;;;;;4983588;28;20028;-53
2021/04/08 11:48:16;;;;;;;64.43;33.50;;;;;;;;;;4984380;28;20034;-54
2021/04/08 11:50:44;;;;;;;45.45;24.08;;;;;;;;;;4986164;28;20058;-57
2021/04/08 11:53:31;;;;;;;32.70;17.27;;;;;;;;;;4985782;28;20036;-55
2021/04/08 11:55:58;;;;;;;48.20;23.00;;;;;;;;;;4986854;28;20081;-58
2021/04/08 11:58:26;;;;;;;21.80;10.25;;;;;;;;;;4987077;28;20022;-58
2021/04/08 12:00:52;;;;;;;24.92;14.27;;;;;;;;;;4987600;28;20026;-54
2021/04/08 12:03:25;;;;;;;39.35;20.08;;;;;;;;;;4986807;28;20415;-55
2021/04/08 12:05:52;;;;;;;37.40;21.38;;;;;;;;;;4987410;28;20030;-54
2021/04/08 12:08:36;;;;;;;60.70;33.13;;;;;;;;;;4987590;28;20054;-55
2021/04/08 12:11:02;;;;;;;45.15;25.30;;;;;;;;;;4992142;28;20046;-52
2021/04/08 12:13:29;;;;;;;29.48;17.42;;;;;;;;;;4986040;28;20023;-52
2021/04/08 12:15:55;;;;;;;32.72;17.88;;;;;;;;;;4988669;28;20073;-51
2021/04/08 12:18:21;;;;;;;28.30;13.85;;;;;;;;;;4987002;28;20113;-51
2021/04/08 12:20:49;;;;;;;57.35;27.48;;;;;;;;;;4987693;28;20023;-52
2021/04/08 12:23:18;;;;;;;53.08;27.80;;;;;;;;;;4976078;28;20042;-52
2021/04/08 12:25:45;;;;;;;78.43;21.10;;;;;;;;;;4987181;28;20058;-50
2021/04/08 12:28:12;;;;;;;52.97;30.60;;;;;;;;;;4985558;28;20471;-51
2021/04/08 12:30:46;;;;;;;24.45;14.63;;;;;;;;;;4977906;28;20051;-53
2021/04/08 12:33:15;;;;;;;73.50;41.28;;;;;;;;;;4987706;28;20101;-54
2021/04/08 12:35:41;;;;;;;37.72;19.10;;;;;;;;;;4978560;28;20190;-55
2021/04/08 12:38:09;;;;;;;32.50;13.30;;;;;;;;;;4971553;28;20341;-53
2021/04/08 12:40:35;;;;;;;46.13;19.83;;;;;;;;;;4969731;28;20505;-52
2021/04/08 12:43:03;;;;;;;79.50;35.63;;;;;;;;;;4972800;28;20397;-53
2021/04/08 12:45:29;;;;;;;56.15;24.60;;;;;;;;;;4972268;28;20030;-52
2021/04/08 12:47:55;;;;;;;40.72;21.02;;;;;;;;;;4972349;28;20461;-52
2021/04/08 12:50:22;;;;;;;15.38;7.50;;;;;;;;;;4971978;28;20030;-53
2021/04/08 12:52:48;;;;;;;28.92;14.05;;;;;;;;;;4971791;28;20023;-54
2021/04/08 12:55:15;;;;;;;15.43;8.98;;;;;;;;;;4972038;28;20041;-55
2021/04/08 12:57:41;;;;;;;37.65;20.98;;;;;;;;;;4971159;28;20026;-54
2021/04/08 13:00:07;;;;;;;45.88;15.32;;;;;;;;;;4969747;28;20076;-54
2021/04/08 13:02:34;;;;;;;50.03;26.17;;;;;;;;;;4970943;28;20030;-54
2021/04/08 13:05:00;;;;;;;46.88;21.70;;;;;;;;;;4953758;28;20077;-55
2021/04/08 13:07:26;;;;;;;47.28;18.40;;;;;;;;;;4966290;28;20034;-54
2021/04/08 13:09:52;;;;;;;28.73;9.48;;;;;;;;;;4967988;28;20349;-54
2021/04/08 13:12:18;;;;;;;31.38;15.75;;;;;;;;;;4971204;28;20120;-54
2021/04/08 13:14:44;;;;;;;16.40;9.77;;;;;;;;;;4971080;28;20057;-54
2021/04/08 13:17:10;;;;;;;21.45;9.27;;;;;;;;;;4972518;28;20033;-54
2021/04/08 13:19:37;;;;;;;39.60;23.38;;;;;;;;;;4970928;28;20026;-53
2021/04/08 13:22:03;;;;;;;31.02;16.40;;;;;;;;;;4972792;28;20549;-53
2021/04/08 13:24:29;;;;;;;46.17;24.38;;;;;;;;;;4971506;28;20040;-54
2021/04/08 13:26:55;;;;;;;33.38;18.23;;;;;;;;;;4971403;28;20029;-54
2021/04/08 13:29:21;;;;;;;35.88;19.52;;;;;;;;;;4969137;28;20050;-57
2021/04/08 13:31:47;;;;;;;71.13;27.90;;;;;;;;;;4971966;28;20022;-55
2021/04/08 13:34:14;;;;;;;21.17;7.78;;;;;;;;;;4971010;28;20030;-55
2021/04/08 13:36:40;;;;;;;25.80;10.95;;;;;;;;;;4972325;28;20125;-56
2021/04/08 13:39:06;;;;;;;40.17;11.75;;;;;;;;;;4969715;28;20025;-55
2021/04/08 13:41:32;;;;;;;19.70;6.35;;;;;;;;;;4970336;28;20756;-55
2021/04/08 13:43:58;;;;;;;33.70;8.90;;;;;;;;;;4968613;28;20026;-55
2021/04/08 13:46:24;;;;;;;30.45;10.85;;;;;;;;;;4972128;28;20409;-55
2021/04/08 13:48:50;;;;;;;15.88;5.72;;;;;;;;;;4970706;28;20026;-55
2021/04/08 13:51:16;;;;;;;28.25;5.55;;;;;;;;;;4971604;28;20201;-55
2021/04/08 13:53:45;;;;;;;10.00;4.20;;;;;;;;;;4969940;28;20492;-55
2021/04/08 13:56:11;;;;;;;18.48;5.63;;;;;;;;;;4971275;28;20046;-55
2021/04/08 13:58:37;;;;;;;15.20;6.20;;;;;;;;;;4971375;28;20031;-55
2021/04/08 14:01:05;;;;;;;24.55;7.78;;;;;;;;;;4970406;28;20507;-55
2021/04/08 14:03:31;;;;;;;14.65;7.30;;;;;;;;;;4969755;28;20486;-55
2021/04/08 14:05:57;;;;;;;17.10;7.97;;;;;;;;;;4969541;28;20326;-55
2021/04/08 14:08:24;;;;;;;11.50;5.38;;;;;;;;;;4969043;28;20023;-55
2021/04/08 14:10:50;;;;;;;18.58;7.95;;;;;;;;;;4969877;28;20058;-55
2021/04/08 14:13:16;;;;;;;13.30;5.38;;;;;;;;;;4968935;28;20155;-54
2021/04/08 14:15:43;;;;;;;8.63;3.38;;;;;;;;;;4970200;28;20085;-54
2021/04/08 14:18:10;;;;;;;7.60;3.95;;;;;;;;;;4972243;28;20030;-55
2021/04/08 14:20:36;;;;;;;13.50;5.85;;;;;;;;;;4969679;28;20026;-54
2021/04/08 14:23:06;;;;;;;8.77;5.15;;;;;;;;;;4971085;28;20716;-55
2021/04/08 14:25:32;;;;;;;9.50;5.18;;;;;;;;;;4970085;28;20026;-54
2021/04/08 14:28:00;;;;;;;15.70;6.40;;;;;;;;;;4970821;28;20026;-54